Time;durP1;ratioP1;P1;durP2;ratioP2;P2;SDS_P1;SDS_P2;PMS_P1;PMS_P2;Temp;Humidity;BMP_temperature;BMP_pressure;BME280_temperature;BME280_humidity;BME280_pressure;Samples;Min_cycle;Max_cycle;Signal;HPM_P1;HPM_P2
2021/08/22 00:00:44;;;;;;;8.10;6.53;;;;;;;;;;4996929;28;20472;-81
2021/08/22 00:03:10;;;;;;;9.23;6.37;;;;;;;;;;4996446;28;20774;-81
2021/08/22 00:05:35;;;;;;;6.23;5.63;;;;;;;;;;4996393;28;20474;-80
2021/08/22 00:08:02;;;;;;;7.73;6.10;;;;;;;;;;4996532;28;20385;-81
2021/08/22 00:10:28;;;;;;;7.17;5.00;;;;;;;;;;4996531;28;20402;-79
2021/08/22 00:12:54;;;;;;;6.17;5.00;;;;;;;;;;4996304;28;20396;-78
2021/08/22 00:15:19;;;;;;;6.37;5.70;;;;;;;;;;4996425;28;20430;-77
2021/08/22 00:17:45;;;;;;;5.67;5.13;;;;;;;;;;4996390;28;20866;-81
2021/08/22 00:20:12;;;;;;;7.33;5.97;;;;;;;;;;4996376;28;20407;-81
2021/08/22 00:22:38;;;;;;;7.00;5.70;;;;;;;;;;4996278;28;20411;-81
2021/08/22 00:25:04;;;;;;;7.83;6.60;;;;;;;;;;4996129;28;20570;-79
2021/08/22 00:27:30;;;;;;;5.80;5.37;;;;;;;;;;4996189;28;20444;-79
2021/08/22 00:29:56;;;;;;;5.70;5.17;;;;;;;;;;4995975;28;20394;-80
2021/08/22 00:32:22;;;;;;;6.37;5.63;;;;;;;;;;4978825;28;20396;-81
2021/08/22 00:34:48;;;;;;;6.10;5.10;;;;;;;;;;4995808;28;20435;-79
2021/08/22 00:37:14;;;;;;;7.07;5.57;;;;;;;;;;4996083;28;20401;-79
2021/08/22 00:39:40;;;;;;;6.23;5.53;;;;;;;;;;4996203;28;20432;-79
2021/08/22 00:42:06;;;;;;;5.90;5.30;;;;;;;;;;4996169;28;21264;-80
2021/08/22 00:44:32;;;;;;;6.53;5.37;;;;;;;;;;4977709;28;20460;-81
2021/08/22 00:46:58;;;;;;;6.33;5.73;;;;;;;;;;4995990;28;20853;-79
2021/08/22 00:49:25;;;;;;;8.10;5.93;;;;;;;;;;4995968;28;20382;-80
2021/08/22 00:51:51;;;;;;;6.47;5.50;;;;;;;;;;4995971;28;20439;-79
2021/08/22 00:54:17;;;;;;;7.30;5.47;;;;;;;;;;4995354;28;20917;-78
2021/08/22 00:56:43;;;;;;;6.13;5.53;;;;;;;;;;4995819;28;20584;-81
2021/08/22 00:59:10;;;;;;;8.60;5.73;;;;;;;;;;4978486;28;20790;-81
2021/08/22 01:01:37;;;;;;;6.93;5.13;;;;;;;;;;4995616;28;20418;-78
2021/08/22 01:04:15;;;;;;;11.93;6.80;;;;;;;;;;4995264;28;20494;-81
2021/08/22 01:06:44;;;;;;;7.93;5.43;;;;;;;;;;4995529;28;20470;-81
2021/08/22 01:09:14;;;;;;;7.20;5.43;;;;;;;;;;4995753;28;20446;-81
2021/08/22 01:11:41;;;;;;;7.57;5.80;;;;;;;;;;4995540;28;20381;-80
2021/08/22 01:14:19;;;;;;;7.77;5.63;;;;;;;;;;4995106;28;20418;-82
2021/08/22 01:16:51;;;;;;;5.80;5.30;;;;;;;;;;4995301;28;20405;-78
2021/08/22 01:19:20;;;;;;;10.00;5.67;;;;;;;;;;4995403;28;20408;-80
2021/08/22 01:21:47;;;;;;;7.93;5.90;;;;;;;;;;4995272;28;20408;-80
2021/08/22 01:24:13;;;;;;;6.87;6.00;;;;;;;;;;4994753;28;20390;-79
2021/08/22 01:26:40;;;;;;;6.60;5.53;;;;;;;;;;4994941;28;20496;-78
2021/08/22 01:29:07;;;;;;;7.67;5.83;;;;;;;;;;4995056;28;20393;-80
2021/08/22 01:31:37;;;;;;;8.10;6.23;;;;;;;;;;4995359;28;20789;-82
2021/08/22 01:34:04;;;;;;;7.70;5.37;;;;;;;;;;4994694;28;20386;-82
2021/08/22 01:36:30;;;;;;;6.93;5.20;;;;;;;;;;4994729;28;20435;-80
2021/08/22 01:38:56;;;;;;;8.47;5.60;;;;;;;;;;4994818;28;21060;-81
2021/08/22 01:41:25;;;;;;;7.97;5.20;;;;;;;;;;4995005;28;20385;-79
2021/08/22 01:43:53;;;;;;;5.87;5.27;;;;;;;;;;4977097;28;20421;-79
2021/08/22 01:46:21;;;;;;;8.60;5.67;;;;;;;;;;4994629;28;20441;-82
2021/08/22 01:48:47;;;;;;;9.97;5.07;;;;;;;;;;4994582;28;20971;-78
2021/08/22 01:51:13;;;;;;;8.10;6.00;;;;;;;;;;4994696;28;20777;-80
2021/08/22 01:53:39;;;;;;;8.10;6.60;;;;;;;;;;4977093;28;20455;-80
2021/08/22 01:56:06;;;;;;;8.27;6.17;;;;;;;;;;4994567;28;20521;-82
2021/08/22 01:58:32;;;;;;;8.07;6.63;;;;;;;;;;4994320;28;20396;-78
2021/08/22 02:00:58;;;;;;;8.33;6.30;;;;;;;;;;4994761;28;20426;-81
2021/08/22 02:03:31;;;;;;;8.10;6.53;;;;;;;;;;4994226;28;20450;-80
2021/08/22 02:06:02;;;;;;;8.00;6.80;;;;;;;;;;4994456;28;20537;-81
2021/08/22 02:08:31;;;;;;;8.47;6.60;;;;;;;;;;4977120;28;20458;-80
2021/08/22 02:11:18;;;;;;;10.50;6.07;;;;;;;;;;4994319;28;20419;-79
2021/08/22 02:13:45;;;;;;;9.03;6.90;;;;;;;;;;4994023;28;20414;-82
2021/08/22 02:16:12;;;;;;;7.07;6.33;;;;;;;;;;4994232;28;20417;-79
2021/08/22 02:18:39;;;;;;;7.33;6.60;;;;;;;;;;4994193;28;20415;-82
2021/08/22 02:21:06;;;;;;;11.00;8.27;;;;;;;;;;4994114;28;20477;-80
2021/08/22 02:23:33;;;;;;;12.70;7.20;;;;;;;;;;4993878;28;20931;-81
2021/08/22 02:25:59;;;;;;;11.47;7.23;;;;;;;;;;4994006;28;20441;-81
2021/08/22 02:28:25;;;;;;;9.57;7.20;;;;;;;;;;4994036;28;20494;-83
2021/08/22 02:30:52;;;;;;;16.67;9.60;;;;;;;;;;4993954;28;20422;-79
2021/08/22 02:33:18;;;;;;;15.93;9.67;;;;;;;;;;4993685;28;20423;-81
2021/08/22 02:35:43;;;;;;;12.93;11.37;;;;;;;;;;4993898;28;20434;-82
2021/08/22 02:38:09;;;;;;;14.77;13.17;;;;;;;;;;4993944;28;20932;-81
2021/08/22 02:40:35;;;;;;;22.30;14.77;;;;;;;;;;4993895;28;20419;-81
2021/08/22 02:43:01;;;;;;;16.23;14.53;;;;;;;;;;4993590;28;20393;-81
2021/08/22 02:45:28;;;;;;;18.73;15.03;;;;;;;;;;4993852;28;20455;-81
2021/08/22 02:47:57;;;;;;;16.90;15.10;;;;;;;;;;4994091;28;20771;-80
2021/08/22 02:50:24;;;;;;;16.80;13.90;;;;;;;;;;4993838;28;20411;-80
2021/08/22 02:52:50;;;;;;;17.53;13.83;;;;;;;;;;4976124;28;20832;-80
2021/08/22 02:55:16;;;;;;;16.47;14.87;;;;;;;;;;4993643;28;20500;-80
2021/08/22 02:57:43;;;;;;;22.90;15.57;;;;;;;;;;4993940;28;20923;-81
2021/08/22 03:00:10;;;;;;;19.77;16.73;;;;;;;;;;4993753;28;20382;-79
2021/08/22 03:02:36;;;;;;;16.90;15.17;;;;;;;;;;4976679;28;20446;-81
2021/08/22 03:05:03;;;;;;;19.07;15.10;;;;;;;;;;4993341;28;20429;-79
2021/08/22 03:07:29;;;;;;;17.93;16.03;;;;;;;;;;4993693;28;20828;-81
2021/08/22 03:09:55;;;;;;;17.30;14.63;;;;;;;;;;4997759;28;20418;-80
2021/08/22 03:12:21;;;;;;;19.00;15.20;;;;;;;;;;4997806;28;20949;-80
2021/08/22 03:14:47;;;;;;;16.57;14.83;;;;;;;;;;4997174;28;20473;-80
2021/08/22 03:17:13;;;;;;;19.83;16.13;;;;;;;;;;4997439;28;20446;-80
2021/08/22 03:19:38;;;;;;;19.30;15.67;;;;;;;;;;4997484;28;20840;-79
2021/08/22 03:22:04;;;;;;;19.20;15.07;;;;;;;;;;4980105;28;20435;-80
2021/08/22 03:24:31;;;;;;;24.77;16.10;;;;;;;;;;4997075;28;20397;-79
2021/08/22 03:26:57;;;;;;;21.70;17.67;;;;;;;;;;4980081;28;20867;-79
2021/08/22 03:29:22;;;;;;;21.10;18.20;;;;;;;;;;4979770;28;20513;-81
2021/08/22 03:31:49;;;;;;;24.63;18.10;;;;;;;;;;4997386;28;20494;-80
2021/08/22 03:34:15;;;;;;;24.60;18.53;;;;;;;;;;4997091;28;20777;-80
2021/08/22 03:36:41;;;;;;;23.97;17.33;;;;;;;;;;4997268;28;20522;-79
2021/08/22 03:39:07;;;;;;;23.00;18.93;;;;;;;;;;4997110;28;20481;-80
2021/08/22 03:41:35;;;;;;;21.70;17.40;;;;;;;;;;4997247;28;20910;-80
2021/08/22 03:44:01;;;;;;;23.10;19.77;;;;;;;;;;4979344;28;20393;-79
2021/08/22 03:46:27;;;;;;;26.30;18.70;;;;;;;;;;4997050;28;20477;-79
2021/08/22 03:48:53;;;;;;;25.13;19.57;;;;;;;;;;4997137;28;20404;-79
2021/08/22 03:51:22;;;;;;;23.30;17.67;;;;;;;;;;4997067;28;20385;-78
2021/08/22 03:53:48;;;;;;;24.47;18.43;;;;;;;;;;4996540;28;20388;-79
2021/08/22 03:56:16;;;;;;;25.67;19.97;;;;;;;;;;4996838;28;20417;-80
2021/08/22 03:58:42;;;;;;;20.30;17.83;;;;;;;;;;4996836;28;20385;-81
2021/08/22 04:01:08;;;;;;;21.80;18.03;;;;;;;;;;4997043;28;20426;-81
2021/08/22 04:03:37;;;;;;;27.33;20.20;;;;;;;;;;4996309;28;20433;-80
2021/08/22 04:06:03;;;;;;;28.70;18.97;;;;;;;;;;4978915;28;20449;-80
2021/08/22 04:08:31;;;;;;;27.20;18.80;;;;;;;;;;4996688;28;20906;-79
2021/08/22 04:10:57;;;;;;;21.00;17.80;;;;;;;;;;4996611;28;20398;-80
2021/08/22 04:13:23;;;;;;;26.37;20.20;;;;;;;;;;4996290;28;20501;-81
2021/08/22 04:15:49;;;;;;;31.67;21.40;;;;;;;;;;4996468;28;20786;-80
2021/08/22 04:18:16;;;;;;;23.40;18.40;;;;;;;;;;4996500;28;20972;-80
2021/08/22 04:20:42;;;;;;;24.20;18.70;;;;;;;;;;4995668;28;20501;-79
2021/08/22 04:23:09;;;;;;;25.50;20.27;;;;;;;;;;4996055;28;20423;-80
2021/08/22 04:25:35;;;;;;;27.50;19.63;;;;;;;;;;4996179;28;20448;-81
2021/08/22 04:28:01;;;;;;;24.17;18.60;;;;;;;;;;4996245;28;20871;-79
2021/08/22 04:30:27;;;;;;;24.63;19.17;;;;;;;;;;4996213;28;20419;-80
2021/08/22 04:32:53;;;;;;;25.47;19.70;;;;;;;;;;4995912;28;20427;-78
2021/08/22 04:35:19;;;;;;;27.10;19.60;;;;;;;;;;4995996;28;20439;-80
2021/08/22 04:37:46;;;;;;;26.40;20.10;;;;;;;;;;4996005;28;20896;-81
2021/08/22 04:40:12;;;;;;;24.60;18.07;;;;;;;;;;4978558;28;20458;-80
2021/08/22 04:42:39;;;;;;;25.03;20.00;;;;;;;;;;4995913;28;20475;-78
2021/08/22 04:45:05;;;;;;;24.80;20.27;;;;;;;;;;4996091;28;20405;-79
2021/08/22 04:47:31;;;;;;;29.63;21.43;;;;;;;;;;4995794;28;20448;-79
2021/08/22 04:49:57;;;;;;;23.10;19.77;;;;;;;;;;4995757;28;20411;-78
2021/08/22 04:52:23;;;;;;;27.73;20.53;;;;;;;;;;4996117;28;20742;-81
2021/08/22 04:54:49;;;;;;;21.83;19.43;;;;;;;;;;4995547;28;20426;-79
2021/08/22 04:57:15;;;;;;;24.90;20.40;;;;;;;;;;4978790;28;20411;-79
2021/08/22 04:59:41;;;;;;;36.13;22.27;;;;;;;;;;4996079;28;20506;-81
2021/08/22 05:02:07;;;;;;;24.83;18.70;;;;;;;;;;4995549;28;20393;-80
2021/08/22 05:04:33;;;;;;;23.10;19.70;;;;;;;;;;4995094;28;20418;-80
2021/08/22 05:06:59;;;;;;;23.70;19.10;;;;;;;;;;4995647;28;20437;-79
2021/08/22 05:09:25;;;;;;;22.43;18.97;;;;;;;;;;4978129;28;20438;-80
2021/08/22 05:11:51;;;;;;;23.23;18.63;;;;;;;;;;4995601;28;20389;-80
2021/08/22 05:14:17;;;;;;;21.70;18.50;;;;;;;;;;4995067;28;20425;-81
2021/08/22 05:16:43;;;;;;;22.27;17.30;;;;;;;;;;4978143;28;20446;-81
2021/08/22 05:19:09;;;;;;;23.73;18.23;;;;;;;;;;4995678;28;20493;-78
2021/08/22 05:21:35;;;;;;;24.40;19.00;;;;;;;;;;4995398;28;20409;-81
2021/08/22 05:24:01;;;;;;;23.43;17.97;;;;;;;;;;4995189;28;20760;-80
2021/08/22 05:26:27;;;;;;;19.93;17.83;;;;;;;;;;4995113;28;20448;-78
2021/08/22 05:28:53;;;;;;;19.47;16.30;;;;;;;;;;4995282;28;20393;-80
2021/08/22 05:31:19;;;;;;;27.23;17.07;;;;;;;;;;4995361;28;20472;-81
2021/08/22 05:33:45;;;;;;;19.40;16.90;;;;;;;;;;4995483;28;20895;-79
2021/08/22 05:36:21;;;;;;;20.37;17.93;;;;;;;;;;4996105;28;20437;-81
2021/08/22 05:38:48;;;;;;;19.60;16.43;;;;;;;;;;4998339;28;20762;-80
2021/08/22 05:41:14;;;;;;;18.87;16.87;;;;;;;;;;4995283;28;20794;-80
2021/08/22 05:43:40;;;;;;;20.67;16.70;;;;;;;;;;4977623;28;20401;-81
2021/08/22 05:46:06;;;;;;;17.73;14.93;;;;;;;;;;4994816;28;20845;-78
2021/08/22 05:48:33;;;;;;;23.67;15.07;;;;;;;;;;4994936;28;20488;-80
2021/08/22 05:50:59;;;;;;;19.67;15.53;;;;;;;;;;4994890;28;20373;-80
2021/08/22 05:53:26;;;;;;;17.80;13.67;;;;;;;;;;4994436;28;20424;-80
2021/08/22 05:55:52;;;;;;;16.00;13.70;;;;;;;;;;4977336;28;20863;-78
2021/08/22 05:58:18;;;;;;;20.10;15.40;;;;;;;;;;4994622;28;20419;-78
2021/08/22 06:00:44;;;;;;;21.40;14.70;;;;;;;;;;4994659;28;20393;-80
2021/08/22 06:03:10;;;;;;;18.77;13.50;;;;;;;;;;4976857;28;20426;-78
2021/08/22 06:05:36;;;;;;;14.43;13.00;;;;;;;;;;4994290;28;20433;-80
2021/08/22 06:08:02;;;;;;;16.13;12.00;;;;;;;;;;4977192;28;20418;-78
2021/08/22 06:10:28;;;;;;;19.53;12.10;;;;;;;;;;4994417;28;20386;-81
2021/08/22 06:12:54;;;;;;;15.97;11.70;;;;;;;;;;4994201;28;20468;-81
2021/08/22 06:15:20;;;;;;;17.67;10.87;;;;;;;;;;4994476;28;20424;-81
2021/08/22 06:17:46;;;;;;;14.80;11.90;;;;;;;;;;4994292;28;20407;-81
2021/08/22 06:20:12;;;;;;;14.70;11.00;;;;;;;;;;4994323;28;20509;-80
2021/08/22 06:22:38;;;;;;;14.23;11.27;;;;;;;;;;4994043;28;20397;-80
2021/08/22 06:25:05;;;;;;;12.70;10.17;;;;;;;;;;4993926;28;20420;-79
2021/08/22 06:27:30;;;;;;;11.80;10.17;;;;;;;;;;4994146;28;20437;-81
2021/08/22 06:29:59;;;;;;;17.23;9.47;;;;;;;;;;4994221;28;20441;-80
2021/08/22 06:32:25;;;;;;;15.67;9.47;;;;;;;;;;4976898;28;20851;-79
2021/08/22 06:34:51;;;;;;;12.40;8.67;;;;;;;;;;4993565;28;20475;-79
2021/08/22 06:37:17;;;;;;;12.97;9.77;;;;;;;;;;4993963;28;20832;-78
2021/08/22 06:39:47;;;;;;;12.90;8.77;;;;;;;;;;4976749;28;20395;-79
2021/08/22 06:42:13;;;;;;;12.23;8.37;;;;;;;;;;4976648;28;20429;-80
2021/08/22 06:44:39;;;;;;;11.20;9.00;;;;;;;;;;4975864;28;20451;-79
2021/08/22 06:47:10;;;;;;;11.60;8.23;;;;;;;;;;4993736;28;20473;-79
2021/08/22 06:49:36;;;;;;;12.53;9.30;;;;;;;;;;4976830;28;20931;-79
2021/08/22 06:52:04;;;;;;;11.93;8.00;;;;;;;;;;4993874;28;20958;-80
2021/08/22 06:54:30;;;;;;;11.07;8.83;;;;;;;;;;4993396;28;20414;-80
2021/08/22 06:56:56;;;;;;;20.30;8.33;;;;;;;;;;4994058;28;20410;-80
2021/08/22 06:59:22;;;;;;;13.57;8.50;;;;;;;;;;4994114;28;20454;-79
2021/08/22 07:01:48;;;;;;;13.60;8.63;;;;;;;;;;4994055;28;20801;-80
2021/08/22 07:04:14;;;;;;;10.23;8.43;;;;;;;;;;4976175;28;20501;-79
2021/08/22 07:06:40;;;;;;;13.67;10.30;;;;;;;;;;4993636;28;20617;-82
2021/08/22 07:09:08;;;;;;;18.50;8.90;;;;;;;;;;4993716;28;20461;-83
2021/08/22 07:11:34;;;;;;;11.03;8.80;;;;;;;;;;4993816;28;20449;-81
2021/08/22 07:14:00;;;;;;;10.53;9.40;;;;;;;;;;4993524;28;20415;-82
2021/08/22 07:16:26;;;;;;;13.53;10.53;;;;;;;;;;4993706;28;20428;-82
2021/08/22 07:18:52;;;;;;;11.03;9.93;;;;;;;;;;4993717;28;20432;-79
2021/08/22 07:21:18;;;;;;;11.57;9.30;;;;;;;;;;4993612;28;20411;-81
2021/08/22 07:23:44;;;;;;;11.30;9.33;;;;;;;;;;4993579;28;20780;-82
2021/08/22 07:26:11;;;;;;;11.43;9.13;;;;;;;;;;4976094;28;20463;-81
2021/08/22 07:28:37;;;;;;;11.03;9.70;;;;;;;;;;4993276;28;20389;-83
2021/08/22 07:31:06;;;;;;;16.83;9.73;;;;;;;;;;4993840;28;20484;-81
2021/08/22 07:33:33;;;;;;;10.80;8.93;;;;;;;;;;4993271;28;20465;-78
2021/08/22 07:35:59;;;;;;;14.37;10.07;;;;;;;;;;4993768;28;20448;-80
2021/08/22 07:38:25;;;;;;;11.47;10.27;;;;;;;;;;4993239;28;20385;-79
2021/08/22 07:40:51;;;;;;;11.43;8.70;;;;;;;;;;4993429;28;20423;-81
2021/08/22 07:43:17;;;;;;;10.43;9.33;;;;;;;;;;4993038;28;20506;-79
2021/08/22 07:45:44;;;;;;;11.57;9.60;;;;;;;;;;4993483;28;20491;-80
2021/08/22 07:48:10;;;;;;;11.23;10.10;;;;;;;;;;4975984;28;20425;-82
2021/08/22 07:50:36;;;;;;;10.77;9.50;;;;;;;;;;4993781;28;20903;-79
2021/08/22 07:53:02;;;;;;;10.17;8.90;;;;;;;;;;4975892;28;20419;-81
2021/08/22 07:55:28;;;;;;;10.93;9.77;;;;;;;;;;4961656;28;20441;-80
2021/08/22 07:57:54;;;;;;;11.50;9.10;;;;;;;;;;4997438;28;20415;-80
2021/08/22 08:00:20;;;;;;;10.10;9.10;;;;;;;;;;4980074;28;20407;-81
2021/08/22 08:02:46;;;;;;;9.83;8.90;;;;;;;;;;4996946;28;20419;-81
2021/08/22 08:05:12;;;;;;;12.83;10.23;;;;;;;;;;4996824;28;20428;-79
2021/08/22 08:07:38;;;;;;;10.13;9.13;;;;;;;;;;4996719;28;20466;-80
2021/08/22 08:10:05;;;;;;;10.10;9.10;;;;;;;;;;4996805;28;20415;-82
2021/08/22 08:12:31;;;;;;;9.53;8.63;;;;;;;;;;4997079;28;20382;-79
2021/08/22 08:14:57;;;;;;;11.60;9.80;;;;;;;;;;4996274;28;20416;-79
2021/08/22 08:17:24;;;;;;;10.50;9.10;;;;;;;;;;4996730;28;20390;-81
2021/08/22 08:19:50;;;;;;;10.30;9.20;;;;;;;;;;4996663;28;20756;-82
2021/08/22 08:22:16;;;;;;;10.07;9.03;;;;;;;;;;4979117;28;20401;-80
2021/08/22 08:24:42;;;;;;;11.20;9.70;;;;;;;;;;4996207;28;20469;-83
2021/08/22 08:27:08;;;;;;;10.70;9.80;;;;;;;;;;4996532;28;20431;-81
2021/08/22 08:29:34;;;;;;;9.60;8.60;;;;;;;;;;4996386;28;20382;-80
2021/08/22 08:32:00;;;;;;;9.73;8.43;;;;;;;;;;4996677;28;20394;-80
2021/08/22 08:34:26;;;;;;;10.30;9.27;;;;;;;;;;4996258;28;20393;-81
2021/08/22 08:36:52;;;;;;;12.13;10.23;;;;;;;;;;4996574;28;20386;-78
2021/08/22 08:39:19;;;;;;;15.50;9.73;;;;;;;;;;4996061;28;20430;-79
2021/08/22 08:41:45;;;;;;;11.27;9.77;;;;;;;;;;4995903;28;20888;-78
2021/08/22 08:44:14;;;;;;;9.83;8.93;;;;;;;;;;4978275;28;20533;-79
2021/08/22 08:46:45;;;;;;;8.83;7.23;;;;;;;;;;4995936;28;20991;-80
2021/08/22 08:49:17;;;;;;;9.40;7.00;;;;;;;;;;4996052;28;20410;-80
2021/08/22 08:51:49;;;;;;;9.90;7.30;;;;;;;;;;4996626;28;20411;-77
2021/08/22 08:54:29;;;;;;;9.13;7.47;;;;;;;;;;4998799;28;20439;-77
2021/08/22 08:56:56;;;;;;;9.00;7.97;;;;;;;;;;4996076;28;20455;-77
2021/08/22 08:59:22;;;;;;;9.27;8.20;;;;;;;;;;4995746;28;20454;-78
2021/08/22 09:01:48;;;;;;;9.10;7.90;;;;;;;;;;4995677;28;20448;-78
2021/08/22 09:04:15;;;;;;;8.80;7.90;;;;;;;;;;4977908;28;20478;-78
2021/08/22 09:06:44;;;;;;;9.70;8.50;;;;;;;;;;4994815;28;20565;-78
2021/08/22 09:09:10;;;;;;;14.33;8.33;;;;;;;;;;4977935;28;20415;-78
2021/08/22 09:11:54;;;;;;;8.70;7.33;;;;;;;;;;4995609;28;20502;-78
2021/08/22 09:14:39;;;;;;;9.00;8.20;;;;;;;;;;4995138;28;20431;-78
2021/08/22 09:17:23;;;;;;;8.40;7.50;;;;;;;;;;4995584;28;20819;-78
2021/08/22 09:20:08;;;;;;;7.40;6.70;;;;;;;;;;4977853;28;20410;-79
2021/08/22 09:22:43;;;;;;;8.73;7.63;;;;;;;;;;4995173;28;20393;-78
2021/08/22 09:25:28;;;;;;;10.63;7.40;;;;;;;;;;4995022;28;20484;-78
2021/08/22 09:28:13;;;;;;;7.10;6.50;;;;;;;;;;4995328;28;20454;-78
2021/08/22 09:30:58;;;;;;;8.40;7.03;;;;;;;;;;4977770;28;20442;-78
2021/08/22 09:33:43;;;;;;;9.20;7.07;;;;;;;;;;4994878;28;20385;-78
2021/08/22 09:36:24;;;;;;;11.60;7.30;;;;;;;;;;4995066;28;20465;-77
2021/08/22 09:39:22;;;;;;;10.33;7.30;;;;;;;;;;4995684;28;20406;-77
2021/08/22 09:42:00;;;;;;;8.13;7.43;;;;;;;;;;4996187;28;20418;-78
2021/08/22 09:44:46;;;;;;;8.50;6.90;;;;;;;;;;4995465;28;20406;-77
2021/08/22 09:47:12;;;;;;;10.17;7.23;;;;;;;;;;4996433;28;20994;-77
2021/08/22 09:49:58;;;;;;;11.33;6.60;;;;;;;;;;4977238;28;20759;-77
2021/08/22 09:52:55;;;;;;;6.40;5.80;;;;;;;;;;4977094;28;20815;-77
2021/08/22 09:55:39;;;;;;;7.50;5.93;;;;;;;;;;4959459;28;20411;-77
2021/08/22 09:58:24;;;;;;;6.47;5.80;;;;;;;;;;4994648;28;20418;-77
2021/08/22 10:00:53;;;;;;;6.70;6.10;;;;;;;;;;4994650;28;20411;-78
2021/08/22 10:03:25;;;;;;;6.83;5.47;;;;;;;;;;4994596;28;20387;-79
2021/08/22 10:06:09;;;;;;;8.07;5.47;;;;;;;;;;4994637;28;20483;-77
2021/08/22 10:08:45;;;;;;;5.70;5.00;;;;;;;;;;4994700;28;20417;-78
2021/08/22 10:11:13;;;;;;;5.40;4.90;;;;;;;;;;4994642;28;20396;-78
2021/08/22 10:13:40;;;;;;;10.37;4.80;;;;;;;;;;4976954;28;20389;-77
2021/08/22 10:16:06;;;;;;;6.13;4.53;;;;;;;;;;4961668;28;20451;-77
2021/08/22 10:18:32;;;;;;;9.40;5.10;;;;;;;;;;4994239;28;20407;-75
2021/08/22 10:21:02;;;;;;;8.93;4.37;;;;;;;;;;4996276;28;20422;-77
2021/08/22 10:23:43;;;;;;;4.70;3.70;;;;;;;;;;4995687;28;20440;-77
2021/08/22 10:26:10;;;;;;;4.10;3.30;;;;;;;;;;4976979;28;20475;-77
2021/08/22 10:28:47;;;;;;;5.40;4.50;;;;;;;;;;4994071;28;20419;-76
2021/08/22 10:31:14;;;;;;;3.97;3.20;;;;;;;;;;4994302;28;20908;-77
2021/08/22 10:33:59;;;;;;;3.77;2.80;;;;;;;;;;4993967;28;20411;-77
2021/08/22 10:36:29;;;;;;;3.20;2.47;;;;;;;;;;4993992;28;20426;-76
2021/08/22 10:39:23;;;;;;;5.07;3.03;;;;;;;;;;4993804;28;20955;-77
2021/08/22 10:41:59;;;;;;;3.37;2.90;;;;;;;;;;4975444;28;20850;-77
2021/08/22 10:44:34;;;;;;;4.47;2.97;;;;;;;;;;4993545;28;20418;-76
2021/08/22 10:47:10;;;;;;;4.40;3.00;;;;;;;;;;4993838;28;20524;-77
2021/08/22 10:50:06;;;;;;;4.90;3.60;;;;;;;;;;4976461;28;20415;-77
2021/08/22 10:52:33;;;;;;;5.03;3.30;;;;;;;;;;4985313;28;21040;-76
2021/08/22 10:55:11;;;;;;;5.27;3.80;;;;;;;;;;4993369;28;20431;-76
2021/08/22 10:57:49;;;;;;;7.10;3.87;;;;;;;;;;4994002;28;20411;-76
2021/08/22 11:00:22;;;;;;;5.57;2.50;;;;;;;;;;4994258;28;20410;-75
2021/08/22 11:02:55;;;;;;;4.53;3.00;;;;;;;;;;4993321;28;20915;-76
2021/08/22 11:05:25;;;;;;;3.43;3.13;;;;;;;;;;4993649;28;20432;-75
2021/08/22 11:07:52;;;;;;;4.90;3.50;;;;;;;;;;4994022;28;20805;-76
2021/08/22 11:10:20;;;;;;;4.37;3.07;;;;;;;;;;4976527;28;20897;-76
2021/08/22 11:12:46;;;;;;;5.50;3.30;;;;;;;;;;4976088;28;20416;-76
2021/08/22 11:15:25;;;;;;;4.83;2.70;;;;;;;;;;4993787;28;20438;-77
2021/08/22 11:17:55;;;;;;;4.80;2.83;;;;;;;;;;4993813;28;20439;-75
2021/08/22 11:20:23;;;;;;;5.10;3.07;;;;;;;;;;4993526;28;20465;-76
2021/08/22 11:22:50;;;;;;;4.87;2.93;;;;;;;;;;4993262;28;20829;-76
2021/08/22 11:25:17;;;;;;;6.40;3.00;;;;;;;;;;4993335;28;20514;-75
2021/08/22 11:27:44;;;;;;;5.63;3.10;;;;;;;;;;4993461;28;20509;-77
2021/08/22 11:30:11;;;;;;;3.80;2.72;;;;;;;;;;4995514;28;20420;-77
2021/08/22 11:32:38;;;;;;;3.10;2.57;;;;;;;;;;4997457;28;20250;-78
2021/08/22 11:35:10;;;;;;;5.60;2.73;;;;;;;;;;4997341;28;20791;-77
2021/08/22 11:37:36;;;;;;;3.90;2.53;;;;;;;;;;4997370;28;20410;-77
2021/08/22 11:40:09;;;;;;;3.73;2.50;;;;;;;;;;4997528;28;20489;-77
2021/08/22 11:42:37;;;;;;;7.93;2.63;;;;;;;;;;4997256;28;20497;-75
2021/08/22 11:45:11;;;;;;;4.00;2.50;;;;;;;;;;4996377;28;20426;-75
2021/08/22 11:47:40;;;;;;;6.67;3.07;;;;;;;;;;4979938;28;20472;-76
2021/08/22 11:50:09;;;;;;;3.07;2.17;;;;;;;;;;4997023;28;20784;-75
2021/08/22 11:52:37;;;;;;;7.63;3.13;;;;;;;;;;4997082;28;20413;-75
2021/08/22 11:55:08;;;;;;;3.90;3.17;;;;;;;;;;4979291;28;20829;-78
2021/08/22 11:57:36;;;;;;;3.33;2.33;;;;;;;;;;4997165;28;20410;-76
2021/08/22 12:00:07;;;;;;;4.97;2.90;;;;;;;;;;4999181;28;20410;-76
2021/08/22 12:02:35;;;;;;;7.90;3.50;;;;;;;;;;4996855;28;20414;-77
2021/08/22 12:05:14;;;;;;;4.83;2.23;;;;;;;;;;4996275;28;20470;-75
2021/08/22 12:07:42;;;;;;;12.23;2.50;;;;;;;;;;4996476;28;20489;-77
2021/08/22 12:10:10;;;;;;;8.90;2.73;;;;;;;;;;4996589;28;20449;-78
2021/08/22 12:12:40;;;;;;;8.50;3.00;;;;;;;;;;4979062;28;20904;-77
2021/08/22 12:15:08;;;;;;;5.70;2.80;;;;;;;;;;4996120;28;20437;-77
2021/08/22 12:17:34;;;;;;;5.70;3.43;;;;;;;;;;4996328;28;20418;-77
2021/08/22 12:20:22;;;;;;;3.70;2.40;;;;;;;;;;4996356;28;20423;-77
2021/08/22 12:23:05;;;;;;;3.43;2.17;;;;;;;;;;4996150;28;20421;-77
2021/08/22 12:25:31;;;;;;;3.40;1.80;;;;;;;;;;4996475;28;20489;-77
2021/08/22 12:28:16;;;;;;;5.77;2.30;;;;;;;;;;4996427;28;20510;-76
2021/08/22 12:30:42;;;;;;;2.57;1.73;;;;;;;;;;4996174;28;20398;-77
2021/08/22 12:33:16;;;;;;;3.23;1.50;;;;;;;;;;4995904;28;20904;-77
2021/08/22 12:35:42;;;;;;;2.70;2.00;;;;;;;;;;4996099;28;20820;-76
2021/08/22 12:38:12;;;;;;;5.63;2.80;;;;;;;;;;4996090;28;20464;-77
2021/08/22 12:40:37;;;;;;;5.37;2.50;;;;;;;;;;4995643;28;20770;-77
2021/08/22 12:43:03;;;;;;;6.27;3.33;;;;;;;;;;4995924;28;20410;-77
2021/08/22 12:45:29;;;;;;;4.57;2.60;;;;;;;;;;4978537;28;20863;-77
2021/08/22 12:47:55;;;;;;;7.60;2.90;;;;;;;;;;4995850;28;20449;-76
2021/08/22 12:50:21;;;;;;;8.77;3.00;;;;;;;;;;4996065;28;20389;-77
2021/08/22 12:52:47;;;;;;;5.03;2.70;;;;;;;;;;4978220;28;20410;-76
2021/08/22 12:55:13;;;;;;;4.57;2.80;;;;;;;;;;4995762;28;20763;-77
2021/08/22 12:57:39;;;;;;;4.53;3.00;;;;;;;;;;4992986;28;20418;-76
2021/08/22 13:00:07;;;;;;;6.60;2.90;;;;;;;;;;4996110;28;20990;-77
2021/08/22 13:02:34;;;;;;;4.53;2.77;;;;;;;;;;4963351;28;20463;-76
2021/08/22 13:05:01;;;;;;;4.20;2.40;;;;;;;;;;4958588;28;20467;-77
2021/08/22 13:07:29;;;;;;;4.00;2.97;;;;;;;;;;4976229;28;20446;-77
2021/08/22 13:09:56;;;;;;;5.33;2.83;;;;;;;;;;4976172;28;20792;-77
2021/08/22 13:12:23;;;;;;;7.37;2.80;;;;;;;;;;4976681;28;20494;-76
2021/08/22 13:14:50;;;;;;;7.40;3.00;;;;;;;;;;4975844;28;20772;-77
2021/08/22 13:17:17;;;;;;;5.23;2.90;;;;;;;;;;4976598;28;20438;-77
2021/08/22 13:19:44;;;;;;;5.53;3.13;;;;;;;;;;4976222;28;20423;-77
2021/08/22 13:22:11;;;;;;;3.20;2.77;;;;;;;;;;4976237;28;20796;-77
2021/08/22 13:24:37;;;;;;;7.70;3.00;;;;;;;;;;4975762;28;20475;-76
2021/08/22 13:27:04;;;;;;;6.33;3.17;;;;;;;;;;4975526;28;20464;-78
2021/08/22 13:29:32;;;;;;;5.80;3.10;;;;;;;;;;4975505;28;20406;-77
2021/08/22 13:31:59;;;;;;;6.17;2.97;;;;;;;;;;4975505;28;20841;-78
2021/08/22 13:34:26;;;;;;;5.13;3.07;;;;;;;;;;4957728;28;20416;-77
2021/08/22 13:36:52;;;;;;;3.60;2.00;;;;;;;;;;4975711;28;20419;-76
2021/08/22 13:39:18;;;;;;;7.70;2.70;;;;;;;;;;4975526;28;20422;-77
2021/08/22 13:41:44;;;;;;;4.67;2.53;;;;;;;;;;4975409;28;20420;-78
2021/08/22 13:44:10;;;;;;;3.13;2.30;;;;;;;;;;4975020;28;20913;-77
2021/08/22 13:46:36;;;;;;;6.50;2.77;;;;;;;;;;4975284;28;20503;-77
2021/08/22 13:49:03;;;;;;;5.00;2.67;;;;;;;;;;4975343;28;20420;-77
2021/08/22 13:51:29;;;;;;;4.83;2.53;;;;;;;;;;4975246;28;20443;-78
2021/08/22 13:53:55;;;;;;;4.00;2.60;;;;;;;;;;4973885;28;20838;-77
2021/08/22 13:56:21;;;;;;;6.17;2.37;;;;;;;;;;4957759;28;20514;-76
2021/08/22 13:58:47;;;;;;;7.17;2.67;;;;;;;;;;4975300;28;20523;-77
2021/08/22 14:01:13;;;;;;;3.67;2.33;;;;;;;;;;4975045;28;20537;-77
2021/08/22 14:03:39;;;;;;;3.77;2.67;;;;;;;;;;4974678;28;20501;-77
2021/08/22 14:06:05;;;;;;;3.60;2.70;;;;;;;;;;4974554;28;20566;-77
2021/08/22 14:08:32;;;;;;;6.73;2.40;;;;;;;;;;4974911;28;20927;-77
2021/08/22 14:10:58;;;;;;;4.00;2.80;;;;;;;;;;4974929;28;20386;-77
2021/08/22 14:13:29;;;;;;;3.93;2.37;;;;;;;;;;4974568;28;20443;-79
2021/08/22 14:15:55;;;;;;;3.10;2.50;;;;;;;;;;5279546;23;20501;-78
2021/08/22 14:18:21;;;;;;;2.87;2.57;;;;;;;;;;4994457;28;20419;-79
2021/08/22 14:20:47;;;;;;;3.97;2.67;;;;;;;;;;4985741;28;20430;-78
2021/08/22 14:23:14;;;;;;;3.83;2.00;;;;;;;;;;4986773;28;20808;-79
2021/08/22 14:28:49;;;;;;;2.90;2.50;;;;;;;;;;5006260;28;20433;-77
2021/08/22 14:31:18;;;;;;;3.17;2.27;;;;;;;;;;5012457;28;20781;-77
2021/08/22 14:33:44;;;;;;;2.73;2.27;;;;;;;;;;5013513;28;20409;-78
2021/08/22 14:36:10;;;;;;;2.73;2.07;;;;;;;;;;5013856;28;20830;-78
2021/08/22 14:38:36;;;;;;;2.40;2.20;;;;;;;;;;5013566;28;20410;-79
2021/08/22 14:41:02;;;;;;;2.17;1.90;;;;;;;;;;5012619;28;20429;-77
2021/08/22 14:43:28;;;;;;;7.87;2.17;;;;;;;;;;5013376;28;20504;-77